sensor_id;sensor_type;location;lat;lon;timestamp;pressure;altitude;pressure_sealevel;temperature;humidity
52651;BME280;38537;47.226;39.702;2023-01-15T00:02:24;101374.47;;;0.67;76.40
52651;BME280;38537;47.226;39.702;2023-01-15T00:04:51;101387.00;;;0.63;75.99
52651;BME280;38537;47.226;39.702;2023-01-15T00:07:21;101379.22;;;0.47;76.73
52651;BME280;38537;47.226;39.702;2023-01-15T00:09:48;101375.59;;;0.53;77.43
52651;BME280;38537;47.226;39.702;2023-01-15T00:12:16;101385.69;;;0.65;76.94
52651;BME280;38537;47.226;39.702;2023-01-15T00:14:43;101376.22;;;0.61;77.11
52651;BME280;38537;47.226;39.702;2023-01-15T00:17:11;101369.44;;;0.64;76.67
52651;BME280;38537;47.226;39.702;2023-01-15T00:19:39;101380.66;;;0.62;76.55
52651;BME280;38537;47.226;39.702;2023-01-15T00:22:06;101366.28;;;0.54;76.65
52651;BME280;38537;47.226;39.702;2023-01-15T00:24:33;101365.53;;;0.40;76.95
52651;BME280;38537;47.226;39.702;2023-01-15T00:27:19;101357.00;;;0.48;76.84
52651;BME280;38537;47.226;39.702;2023-01-15T00:30:04;101378.66;;;0.76;76.91
52651;BME280;38537;47.226;39.702;2023-01-15T00:32:32;101350.25;;;0.44;76.44
52651;BME280;38537;47.226;39.702;2023-01-15T00:34:59;101374.94;;;0.57;76.44
52651;BME280;38537;47.226;39.702;2023-01-15T00:37:27;101347.78;;;0.36;76.75
52651;BME280;38537;47.226;39.702;2023-01-15T00:39:54;101357.94;;;0.22;76.76
52651;BME280;38537;47.226;39.702;2023-01-15T00:42:22;101337.72;;;0.10;77.31
52651;BME280;38537;47.226;39.702;2023-01-15T00:44:49;101348.69;;;0.17;76.91
52651;BME280;38537;47.226;39.702;2023-01-15T00:47:16;101352.06;;;0.19;77.64
52651;BME280;38537;47.226;39.702;2023-01-15T00:49:44;101341.31;;;0.11;77.53
52651;BME280;38537;47.226;39.702;2023-01-15T00:52:11;101340.03;;;0.20;77.47
52651;BME280;38537;47.226;39.702;2023-01-15T00:54:39;101344.63;;;0.26;77.25
52651;BME280;38537;47.226;39.702;2023-01-15T00:57:06;101342.09;;;0.24;77.21
52651;BME280;38537;47.226;39.702;2023-01-15T00:59:33;101338.09;;;0.27;77.34
52651;BME280;38537;47.226;39.702;2023-01-15T01:02:01;101336.16;;;0.34;76.98
52651;BME280;38537;47.226;39.702;2023-01-15T01:04:28;101338.03;;;0.40;76.98
52651;BME280;38537;47.226;39.702;2023-01-15T01:06:56;101333.94;;;0.05;76.23
52651;BME280;38537;47.226;39.702;2023-01-15T01:09:24;101338.72;;;0.22;77.53
52651;BME280;38537;47.226;39.702;2023-01-15T01:11:51;101333.84;;;0.31;77.37
52651;BME280;38537;47.226;39.702;2023-01-15T01:14:18;101349.91;;;0.34;76.81
52651;BME280;38537;47.226;39.702;2023-01-15T01:16:46;101331.94;;;0.31;77.01
52651;BME280;38537;47.226;39.702;2023-01-15T01:19:16;101330.03;;;0.32;76.76
52651;BME280;38537;47.226;39.702;2023-01-15T01:21:46;101319.06;;;0.32;76.57
52651;BME280;38537;47.226;39.702;2023-01-15T01:24:16;101346.72;;;0.30;76.29
52651;BME280;38537;47.226;39.702;2023-01-15T01:26:45;101328.00;;;0.08;76.24
52651;BME280;38537;47.226;39.702;2023-01-15T01:29:18;101338.56;;;0.17;76.76
52651;BME280;38537;47.226;39.702;2023-01-15T01:31:48;101331.44;;;0.48;76.94
52651;BME280;38537;47.226;39.702;2023-01-15T01:34:18;101311.44;;;0.34;76.26
52651;BME280;38537;47.226;39.702;2023-01-15T01:36:45;101338.84;;;0.47;75.66
52651;BME280;38537;47.226;39.702;2023-01-15T01:39:15;101323.25;;;0.41;75.40
52651;BME280;38537;47.226;39.702;2023-01-15T01:41:45;101314.47;;;0.19;75.52
52651;BME280;38537;47.226;39.702;2023-01-15T01:47:02;101304.16;;;0.02;75.91
52651;BME280;38537;47.226;39.702;2023-01-15T01:49:32;101328.44;;;0.11;76.09
52651;BME280;38537;47.226;39.702;2023-01-15T01:52:07;101319.19;;;-0.08;76.23
52651;BME280;38537;47.226;39.702;2023-01-15T01:54:36;101311.59;;;-0.06;76.48
52651;BME280;38537;47.226;39.702;2023-01-15T01:57:06;101326.75;;;0.04;76.49
52651;BME280;38537;47.226;39.702;2023-01-15T01:59:35;101331.84;;;-0.07;76.45
52651;BME280;38537;47.226;39.702;2023-01-15T02:02:03;101327.22;;;-0.13;76.28
52651;BME280;38537;47.226;39.702;2023-01-15T02:04:32;101330.59;;;-0.04;76.44
52651;BME280;38537;47.226;39.702;2023-01-15T02:07:00;101318.34;;;-0.21;76.06
52651;BME280;38537;47.226;39.702;2023-01-15T02:09:28;101334.81;;;-0.21;76.37
52651;BME280;38537;47.226;39.702;2023-01-15T02:12:05;101309.09;;;-0.27;76.86
52651;BME280;38537;47.226;39.702;2023-01-15T02:18:05;101320.28;;;-0.35;77.06
52651;BME280;38537;47.226;39.702;2023-01-15T02:20:47;101320.94;;;-0.46;77.38
52651;BME280;38537;47.226;39.702;2023-01-15T02:28:49;101319.25;;;-0.34;77.50
52651;BME280;38537;47.226;39.702;2023-01-15T02:31:37;101327.06;;;-0.44;77.44
52651;BME280;38537;47.226;39.702;2023-01-15T02:36:46;101327.69;;;-0.62;77.92
52651;BME280;38537;47.226;39.702;2023-01-15T02:39:23;101336.78;;;-0.48;77.95
52651;BME280;38537;47.226;39.702;2023-01-15T02:41:55;101342.69;;;-0.45;77.91
52651;BME280;38537;47.226;39.702;2023-01-15T02:44:31;101318.19;;;-0.59;77.64
52651;BME280;38537;47.226;39.702;2023-01-15T02:47:03;101315.66;;;-0.61;77.92
52651;BME280;38537;47.226;39.702;2023-01-15T02:49:33;101334.88;;;-0.54;77.89
52651;BME280;38537;47.226;39.702;2023-01-15T02:52:07;101307.25;;;-0.73;77.88
52651;BME280;38537;47.226;39.702;2023-01-15T02:54:42;101326.44;;;-0.53;78.36
52651;BME280;38537;47.226;39.702;2023-01-15T02:57:10;101313.13;;;-0.62;78.42
52651;BME280;38537;47.226;39.702;2023-01-15T02:59:45;101304.06;;;-0.56;78.42
52651;BME280;38537;47.226;39.702;2023-01-15T03:02:18;101320.75;;;-0.51;78.17
52651;BME280;38537;47.226;39.702;2023-01-15T03:04:53;101305.97;;;-0.57;78.09
52651;BME280;38537;47.226;39.702;2023-01-15T03:07:36;101318.19;;;-0.33;78.17
52651;BME280;38537;47.226;39.702;2023-01-15T03:10:08;101305.97;;;-0.50;77.95
52651;BME280;38537;47.226;39.702;2023-01-15T03:12:48;101315.88;;;-0.49;77.75
52651;BME280;38537;47.226;39.702;2023-01-15T03:15:54;101326.44;;;-0.53;77.68
52651;BME280;38537;47.226;39.702;2023-01-15T03:18:49;101314.84;;;-0.48;77.81
52651;BME280;38537;47.226;39.702;2023-01-15T03:21:35;101323.47;;;-0.38;78.00
52651;BME280;38537;47.226;39.702;2023-01-15T03:24:06;101313.75;;;-0.34;78.02
52651;BME280;38537;47.226;39.702;2023-01-15T03:26:34;101322.41;;;-0.24;77.61
52651;BME280;38537;47.226;39.702;2023-01-15T03:29:05;101300.44;;;-0.30;77.74
52651;BME280;38537;47.226;39.702;2023-01-15T03:31:34;101316.50;;;-0.34;77.25
52651;BME280;38537;47.226;39.702;2023-01-15T03:34:02;101299.81;;;-0.39;77.37
52651;BME280;38537;47.226;39.702;2023-01-15T03:36:30;101307.88;;;-0.44;77.69
52651;BME280;38537;47.226;39.702;2023-01-15T03:39:00;101291.81;;;-0.60;77.24
52651;BME280;38537;47.226;39.702;2023-01-15T03:47:27;101307.88;;;-0.57;77.06
52651;BME280;38537;47.226;39.702;2023-01-15T03:58:31;101310.22;;;-0.67;78.75
52651;BME280;38537;47.226;39.702;2023-01-15T04:01:10;101303.88;;;-0.75;78.35
52651;BME280;38537;47.226;39.702;2023-01-15T04:03:40;101295.00;;;-0.77;78.41
52651;BME280;38537;47.226;39.702;2023-01-15T04:06:09;101304.69;;;-0.81;78.49
52651;BME280;38537;47.226;39.702;2023-01-15T04:08:40;101301.97;;;-0.87;78.48
52651;BME280;38537;47.226;39.702;2023-01-15T04:11:08;101292.25;;;-0.83;78.34
52651;BME280;38537;47.226;39.702;2023-01-15T04:13:42;101287.22;;;-0.93;78.72
52651;BME280;38537;47.226;39.702;2023-01-15T04:16:27;101311.25;;;-0.82;79.04
52651;BME280;38537;47.226;39.702;2023-01-15T04:18:55;101320.09;;;-0.86;78.85
52651;BME280;38537;47.226;39.702;2023-01-15T04:21:23;101321.78;;;-0.98;78.51
52651;BME280;38537;47.226;39.702;2023-01-15T04:23:51;101319.88;;;-1.05;78.88
52651;BME280;38537;47.226;39.702;2023-01-15T04:26:21;101313.97;;;-0.95;79.02
52651;BME280;38537;47.226;39.702;2023-01-15T04:28:49;101273.47;;;-1.19;79.24
52651;BME280;38537;47.226;39.702;2023-01-15T04:31:17;101279.63;;;-1.11;79.26
52651;BME280;38537;47.226;39.702;2023-01-15T04:33:45;101297.75;;;-0.96;79.07
52651;BME280;38537;47.226;39.702;2023-01-15T04:36:12;101301.75;;;-0.99;78.70
52651;BME280;38537;47.226;39.702;2023-01-15T04:38:40;101314.00;;;-0.88;79.08
52651;BME280;38537;47.226;39.702;2023-01-15T04:41:09;101304.28;;;-0.97;79.17
52651;BME280;38537;47.226;39.702;2023-01-15T04:43:55;101323.47;;;-0.78;79.08
52651;BME280;38537;47.226;39.702;2023-01-15T04:46:40;101305.56;;;-0.87;78.86
52651;BME280;38537;47.226;39.702;2023-01-15T04:49:14;101313.56;;;-0.85;78.99
52651;BME280;38537;47.226;39.702;2023-01-15T04:51:42;101298.78;;;-0.97;78.91
52651;BME280;38537;47.226;39.702;2023-01-15T04:54:11;101301.13;;;-0.88;79.16
52651;BME280;38537;47.226;39.702;2023-01-15T04:56:42;101321.59;;;-0.90;79.19
52651;BME280;38537;47.226;39.702;2023-01-15T04:59:13;101321.78;;;-0.92;79.44
52651;BME280;38537;47.226;39.702;2023-01-15T05:01:40;101300.03;;;-1.07;79.51
52651;BME280;38537;47.226;39.702;2023-01-15T05:04:24;101300.28;;;-0.95;79.54
52651;BME280;38537;47.226;39.702;2023-01-15T05:06:51;101308.50;;;-0.82;80.08
52651;BME280;38537;47.226;39.702;2023-01-15T05:09:19;101308.50;;;-0.82;79.74
52651;BME280;38537;47.226;39.702;2023-01-15T05:11:46;101309.56;;;-0.89;79.47
52651;BME280;38537;47.226;39.702;2023-01-15T05:14:16;101314.63;;;-0.93;79.19
52651;BME280;38537;47.226;39.702;2023-01-15T05:16:43;101324.94;;;-0.95;79.40
52651;BME280;38537;47.226;39.702;2023-01-15T05:19:10;101311.88;;;-0.93;79.88
52651;BME280;38537;47.226;39.702;2023-01-15T05:21:42;101308.91;;;-0.85;79.92
52651;BME280;38537;47.226;39.702;2023-01-15T05:24:15;101313.13;;;-0.82;79.85
52651;BME280;38537;47.226;39.702;2023-01-15T05:26:43;101304.47;;;-0.86;79.72
52651;BME280;38537;47.226;39.702;2023-01-15T05:29:11;101320.94;;;-0.79;79.84
52651;BME280;38537;47.226;39.702;2023-01-15T05:31:39;101312.09;;;-0.68;79.95
52651;BME280;38537;47.226;39.702;2023-01-15T05:34:08;101315.91;;;-0.69;79.88
52651;BME280;38537;47.226;39.702;2023-01-15T05:36:37;101313.34;;;-0.84;79.12
52651;BME280;38537;47.226;39.702;2023-01-15T05:39:07;101312.28;;;-0.96;79.97
52651;BME280;38537;47.226;39.702;2023-01-15T05:41:35;101323.69;;;-0.79;79.66
52651;BME280;38537;47.226;39.702;2023-01-15T05:44:18;101327.28;;;-0.79;80.16
52651;BME280;38537;47.226;39.702;2023-01-15T05:46:46;101312.94;;;-0.67;79.89
52651;BME280;38537;47.226;39.702;2023-01-15T05:49:17;101324.09;;;-0.62;79.86
52651;BME280;38537;47.226;39.702;2023-01-15T05:51:45;101329.41;;;-0.74;79.25
52651;BME280;38537;47.226;39.702;2023-01-15T05:54:15;101323.25;;;-0.63;79.80
52651;BME280;38537;47.226;39.702;2023-01-15T05:56:43;101336.34;;;-0.58;79.56
52651;BME280;38537;47.226;39.702;2023-01-15T05:59:16;101326.66;;;-0.67;79.38
52651;BME280;38537;47.226;39.702;2023-01-15T06:01:44;101338.03;;;-0.77;79.07
52651;BME280;38537;47.226;39.702;2023-01-15T06:04:12;101337.81;;;-0.76;79.55
52651;BME280;38537;47.226;39.702;2023-01-15T06:06:41;101331.09;;;-0.73;79.85
52651;BME280;38537;47.226;39.702;2023-01-15T06:09:09;101330.03;;;-0.72;79.63
52651;BME280;38537;47.226;39.702;2023-01-15T06:11:36;101324.75;;;-0.60;79.63
52651;BME280;38537;47.226;39.702;2023-01-15T06:14:04;101332.75;;;-0.52;79.48
52651;BME280;38537;47.226;39.702;2023-01-15T06:16:32;101317.16;;;-0.58;79.45
52651;BME280;38537;47.226;39.702;2023-01-15T06:19:01;101340.34;;;-0.41;79.31
52651;BME280;38537;47.226;39.702;2023-01-15T06:21:31;101339.91;;;-0.31;79.40
52651;BME280;38537;47.226;39.702;2023-01-15T06:24:00;101318.84;;;-0.51;79.05
52651;BME280;38537;47.226;39.702;2023-01-15T06:26:27;101339.91;;;-0.38;79.10
52651;BME280;38537;47.226;39.702;2023-01-15T06:28:56;101336.53;;;-0.40;79.49
52651;BME280;38537;47.226;39.702;2023-01-15T06:31:24;101337.19;;;-0.38;79.50
52651;BME280;38537;47.226;39.702;2023-01-15T06:33:55;101338.22;;;-0.26;79.33
52651;BME280;38537;47.226;39.702;2023-01-15T06:36:24;101349.63;;;-0.22;79.27
52651;BME280;38537;47.226;39.702;2023-01-15T06:38:52;101340.56;;;-0.23;78.97
52651;BME280;38537;47.226;39.702;2023-01-15T06:41:22;101329.34;;;-0.15;79.32
52651;BME280;38537;47.226;39.702;2023-01-15T06:44:15;101344.09;;;-0.03;78.87
52651;BME280;38537;47.226;39.702;2023-01-15T06:47:09;101325.06;;;0.03;78.29
52651;BME280;38537;47.226;39.702;2023-01-15T06:49:53;101311.59;;;-0.12;77.86
52651;BME280;38537;47.226;39.702;2023-01-15T06:52:25;101314.13;;;-0.11;78.47
52651;BME280;38537;47.226;39.702;2023-01-15T06:54:53;101309.47;;;-0.04;78.14
52651;BME280;38537;47.226;39.702;2023-01-15T06:57:22;101276.38;;;-0.35;78.25
52651;BME280;38537;47.226;39.702;2023-01-15T06:59:49;101289.25;;;-0.42;78.28
52651;BME280;38537;47.226;39.702;2023-01-15T07:02:17;101293.69;;;-0.41;79.01
52651;BME280;38537;47.226;39.702;2023-01-15T07:04:45;101299.22;;;-0.48;78.75
52651;BME280;38537;47.226;39.702;2023-01-15T07:07:19;101315.03;;;-0.56;79.44
52651;BME280;38537;47.226;39.702;2023-01-15T07:09:47;101298.16;;;-0.47;80.13
52651;BME280;38537;47.226;39.702;2023-01-15T07:12:14;101312.22;;;-0.04;80.23
52651;BME280;38537;47.226;39.702;2023-01-15T07:14:42;101310.06;;;0.05;79.73
52651;BME280;38537;47.226;39.702;2023-01-15T07:17:10;101313.44;;;0.14;78.92
52651;BME280;38537;47.226;39.702;2023-01-15T07:19:37;101287.53;;;-0.17;78.10
52651;BME280;38537;47.226;39.702;2023-01-15T07:22:06;101310.53;;;-0.05;78.60
52651;BME280;38537;47.226;39.702;2023-01-15T07:24:33;101299.28;;;0.04;78.67
52651;BME280;38537;47.226;39.702;2023-01-15T07:27:01;101288.75;;;0.00;78.82
52651;BME280;38537;47.226;39.702;2023-01-15T07:29:30;101279.00;;;0.05;78.40
52651;BME280;38537;47.226;39.702;2023-01-15T07:31:57;101275.63;;;0.09;78.85
52651;BME280;38537;47.226;39.702;2023-01-15T07:34:24;101303.81;;;0.36;78.73
52651;BME280;38537;47.226;39.702;2023-01-15T07:36:53;101294.13;;;0.27;78.34
52651;BME280;38537;47.226;39.702;2023-01-15T07:39:20;101305.94;;;0.34;78.08
52651;BME280;38537;47.226;39.702;2023-01-15T07:41:48;101308.34;;;0.62;78.52
52651;BME280;38537;47.226;39.702;2023-01-15T07:44:34;101304.75;;;0.61;77.47
52651;BME280;38537;47.226;39.702;2023-01-15T07:47:37;101311.72;;;0.64;77.26
52651;BME280;38537;47.226;39.702;2023-01-15T07:50:24;101290.44;;;0.53;77.07
52651;BME280;38537;47.226;39.702;2023-01-15T07:52:51;101286.84;;;0.52;77.32
52651;BME280;38537;47.226;39.702;2023-01-15T07:55:20;101300.50;;;0.65;77.42
52651;BME280;38537;47.226;39.702;2023-01-15T07:57:48;101293.50;;;0.69;77.13
52651;BME280;38537;47.226;39.702;2023-01-15T08:00:20;101300.44;;;0.79;76.80
52651;BME280;38537;47.226;39.702;2023-01-15T08:02:48;101297.16;;;0.63;76.10
52651;BME280;38537;47.226;39.702;2023-01-15T08:05:18;101290.97;;;0.68;76.46
52651;BME280;38537;47.226;39.702;2023-01-15T08:07:46;101303.50;;;0.57;76.65
52651;BME280;38537;47.226;39.702;2023-01-15T08:10:15;101268.81;;;0.63;77.57
52651;BME280;38537;47.226;39.702;2023-01-15T08:12:42;101292.19;;;0.79;77.05
52651;BME280;38537;47.226;39.702;2023-01-15T08:15:31;101283.75;;;0.74;76.54
52651;BME280;38537;47.226;39.702;2023-01-15T08:17:59;101282.78;;;0.61;76.47
52651;BME280;38537;47.226;39.702;2023-01-15T08:20:33;101273.41;;;0.38;76.83
52651;BME280;38537;47.226;39.702;2023-01-15T08:23:00;101264.56;;;0.29;77.38
52651;BME280;38537;47.226;39.702;2023-01-15T08:25:28;101267.31;;;0.22;77.27
52651;BME280;38537;47.226;39.702;2023-01-15T08:27:59;101264.97;;;0.32;77.94
52651;BME280;38537;47.226;39.702;2023-01-15T08:30:27;101268.94;;;0.43;78.45
52651;BME280;38537;47.226;39.702;2023-01-15T08:32:58;101259.84;;;0.43;78.08
52651;BME280;38537;47.226;39.702;2023-01-15T08:35:27;101267.47;;;0.41;77.66
52651;BME280;38537;47.226;39.702;2023-01-15T08:37:54;101252.72;;;0.28;77.84
52651;BME280;38537;47.226;39.702;2023-01-15T08:40:21;101263.19;;;0.45;78.08
52651;BME280;38537;47.226;39.702;2023-01-15T08:42:49;101257.63;;;0.58;78.48
52651;BME280;38537;47.226;39.702;2023-01-15T08:45:17;101245.88;;;0.44;78.25
52651;BME280;38537;47.226;39.702;2023-01-15T08:47:44;101235.34;;;0.41;78.05
52651;BME280;38537;47.226;39.702;2023-01-15T08:50:13;101263.59;;;0.48;78.18
52651;BME280;38537;47.226;39.702;2023-01-15T08:52:40;101238.59;;;0.25;78.10
52651;BME280;38537;47.226;39.702;2023-01-15T08:55:07;101210.91;;;0.26;78.22
52651;BME280;38537;47.226;39.702;2023-01-15T08:57:34;101237.69;;;0.69;79.45
52651;BME280;38537;47.226;39.702;2023-01-15T09:00:03;101224.63;;;0.89;79.33
52651;BME280;38537;47.226;39.702;2023-01-15T09:02:33;101235.19;;;1.17;78.56
52651;BME280;38537;47.226;39.702;2023-01-15T09:05:00;101238.91;;;1.29;77.47
52651;BME280;38537;47.226;39.702;2023-01-15T09:07:28;101227.28;;;1.27;76.91
52651;BME280;38537;47.226;39.702;2023-01-15T09:09:56;101231.13;;;1.45;77.04
52651;BME280;38537;47.226;39.702;2023-01-15T09:12:23;101224.00;;;1.37;76.66
52651;BME280;38537;47.226;39.702;2023-01-15T09:14:52;101216.56;;;1.19;76.22
52651;BME280;38537;47.226;39.702;2023-01-15T09:17:31;101209.81;;;1.15;76.63
52651;BME280;38537;47.226;39.702;2023-01-15T09:19:58;101215.16;;;1.10;76.93
52651;BME280;38537;47.226;39.702;2023-01-15T09:22:26;101217.00;;;1.16;77.15
52651;BME280;38537;47.226;39.702;2023-01-15T09:24:57;101194.47;;;1.08;77.67
52651;BME280;38537;47.226;39.702;2023-01-15T09:27:26;101192.56;;;1.08;77.69
52651;BME280;38537;47.226;39.702;2023-01-15T09:29:54;101202.19;;;1.17;77.41
52651;BME280;38537;47.226;39.702;2023-01-15T09:32:22;101196.25;;;1.20;77.71
52651;BME280;38537;47.226;39.702;2023-01-15T09:34:50;101190.78;;;1.14;77.73
52651;BME280;38537;47.226;39.702;2023-01-15T09:37:17;101175.56;;;1.11;77.90
52651;BME280;38537;47.226;39.702;2023-01-15T09:39:44;101187.72;;;1.28;78.02
52651;BME280;38537;47.226;39.702;2023-01-15T09:45:12;101204.25;;;1.65;77.99
52651;BME280;38537;47.226;39.702;2023-01-15T09:48:32;101196.75;;;1.90;77.38
52651;BME280;38537;47.226;39.702;2023-01-15T09:53:43;101201.41;;;1.90;76.99
52651;BME280;38537;47.226;39.702;2023-01-15T09:56:23;101168.16;;;1.73;76.32
52651;BME280;38537;47.226;39.702;2023-01-15T09:58:51;101185.13;;;1.88;76.81
52651;BME280;38537;47.226;39.702;2023-01-15T10:01:25;101178.59;;;1.83;76.61
52651;BME280;38537;47.226;39.702;2023-01-15T10:06:27;101173.94;;;1.83;76.47
52651;BME280;38537;47.226;39.702;2023-01-15T10:09:32;101186.31;;;2.11;76.77
52651;BME280;38537;47.226;39.702;2023-01-15T10:12:17;101181.25;;;2.08;76.15
52651;BME280;38537;47.226;39.702;2023-01-15T10:17:42;101196.00;;;2.43;75.81
52651;BME280;38537;47.226;39.702;2023-01-15T10:25:47;101169.38;;;2.90;74.82
52651;BME280;38537;47.226;39.702;2023-01-15T10:28:29;101156.53;;;2.72;73.77
52651;BME280;38537;47.226;39.702;2023-01-15T10:31:13;101158.78;;;2.64;74.74
52651;BME280;38537;47.226;39.702;2023-01-15T10:36:29;101162.66;;;2.86;74.71
52651;BME280;38537;47.226;39.702;2023-01-15T10:42:27;101158.72;;;2.94;74.66
52651;BME280;38537;47.226;39.702;2023-01-15T10:45:24;101153.19;;;3.05;74.85
52651;BME280;38537;47.226;39.702;2023-01-15T10:48:05;101145.66;;;3.01;74.19
52651;BME280;38537;47.226;39.702;2023-01-15T10:50:38;101125.97;;;3.09;74.37
52651;BME280;38537;47.226;39.702;2023-01-15T10:53:55;101134.13;;;3.27;73.73
52651;BME280;38537;47.226;39.702;2023-01-15T10:56:21;101133.50;;;3.49;74.19
52651;BME280;38537;47.226;39.702;2023-01-15T11:01:34;101123.09;;;3.79;72.92
52651;BME280;38537;47.226;39.702;2023-01-15T11:04:02;101126.56;;;3.86;72.27
52651;BME280;38537;47.226;39.702;2023-01-15T11:06:31;101126.53;;;3.98;72.30
52651;BME280;38537;47.226;39.702;2023-01-15T11:08:59;101118.22;;;3.98;71.40
52651;BME280;38537;47.226;39.702;2023-01-15T11:11:46;101126.97;;;4.06;72.05
52651;BME280;38537;47.226;39.702;2023-01-15T11:14:43;101137.13;;;4.18;71.18
52651;BME280;38537;47.226;39.702;2023-01-15T11:17:35;101134.59;;;4.16;71.31
52651;BME280;38537;47.226;39.702;2023-01-15T11:20:29;101136.28;;;4.17;70.81
52651;BME280;38537;47.226;39.702;2023-01-15T11:23:09;101133.13;;;4.25;71.11
52651;BME280;38537;47.226;39.702;2023-01-15T11:25:46;101125.19;;;4.29;70.83
52651;BME280;38537;47.226;39.702;2023-01-15T11:28:13;101126.63;;;4.31;70.85
52651;BME280;38537;47.226;39.702;2023-01-15T11:30:41;101133.97;;;4.26;70.97
52651;BME280;38537;47.226;39.702;2023-01-15T11:33:37;101132.56;;;4.40;71.10
52651;BME280;38537;47.226;39.702;2023-01-15T11:36:07;101133.91;;;4.37;71.11
52651;BME280;38537;47.226;39.702;2023-01-15T11:38:47;101134.34;;;4.46;70.62
52651;BME280;38537;47.226;39.702;2023-01-15T11:41:19;101136.13;;;4.52;70.23
52651;BME280;38537;47.226;39.702;2023-01-15T11:43:58;101136.22;;;4.74;70.09
52651;BME280;38537;47.226;39.702;2023-01-15T11:46:45;101136.72;;;4.71;69.64
52651;BME280;38537;47.226;39.702;2023-01-15T11:49:31;101134.31;;;4.74;69.48
52651;BME280;38537;47.226;39.702;2023-01-15T11:52:20;101124.97;;;4.80;69.63
52651;BME280;38537;47.226;39.702;2023-01-15T11:54:52;101140.91;;;4.90;69.48
52651;BME280;38537;47.226;39.702;2023-01-15T11:57:31;101142.59;;;4.91;68.90
52651;BME280;38537;47.226;39.702;2023-01-15T12:00:00;101144.00;;;4.60;68.96
52651;BME280;38537;47.226;39.702;2023-01-15T12:02:38;101147.84;;;4.59;69.81
52651;BME280;38537;47.226;39.702;2023-01-15T12:05:20;101152.72;;;4.52;69.68
52651;BME280;38537;47.226;39.702;2023-01-15T12:07:51;101137.34;;;4.28;69.60
52651;BME280;38537;47.226;39.702;2023-01-15T12:10:21;101159.44;;;4.28;70.30
52651;BME280;38537;47.226;39.702;2023-01-15T12:16:36;101150.06;;;4.29;70.28
52651;BME280;38537;47.226;39.702;2023-01-15T12:32:42;101149.94;;;4.52;71.43
52651;BME280;38537;47.226;39.702;2023-01-15T12:35:32;101130.50;;;4.47;70.45
52651;BME280;38537;47.226;39.702;2023-01-15T12:38:12;101146.66;;;4.55;70.67
52651;BME280;38537;47.226;39.702;2023-01-15T12:40:49;101147.44;;;4.67;70.26
52651;BME280;38537;47.226;39.702;2023-01-15T12:43:24;101140.88;;;4.57;69.23
52651;BME280;38537;47.226;39.702;2023-01-15T12:46:17;101145.75;;;4.66;69.79
52651;BME280;38537;47.226;39.702;2023-01-15T12:49:29;101149.44;;;4.55;69.38
52651;BME280;38537;47.226;39.702;2023-01-15T12:55:14;101171.13;;;4.46;69.49
52651;BME280;38537;47.226;39.702;2023-01-15T12:57:45;101159.09;;;4.24;69.72
52651;BME280;38537;47.226;39.702;2023-01-15T13:00:35;101173.94;;;4.35;70.63
52651;BME280;38537;47.226;39.702;2023-01-15T13:03:19;101172.78;;;4.31;70.11
52651;BME280;38537;47.226;39.702;2023-01-15T13:05:59;101172.69;;;4.26;69.90
52651;BME280;38537;47.226;39.702;2023-01-15T13:11:00;101171.25;;;4.23;70.44
52651;BME280;38537;47.226;39.702;2023-01-15T13:13:32;101162.41;;;4.09;70.36
52651;BME280;38537;47.226;39.702;2023-01-15T13:19:09;101179.00;;;4.09;70.97
52651;BME280;38537;47.226;39.702;2023-01-15T13:21:42;101165.91;;;4.05;70.35
52651;BME280;38537;47.226;39.702;2023-01-15T13:27:13;101182.47;;;4.05;71.15
52651;BME280;38537;47.226;39.702;2023-01-15T13:30:25;101193.28;;;4.06;70.87
52651;BME280;38537;47.226;39.702;2023-01-15T13:33:03;101186.59;;;3.91;70.98
52651;BME280;38537;47.226;39.702;2023-01-15T13:35:47;101194.31;;;3.89;71.23
52651;BME280;38537;47.226;39.702;2023-01-15T13:38:22;101188.91;;;3.82;71.26
52651;BME280;38537;47.226;39.702;2023-01-15T13:40:52;101173.09;;;3.54;71.70
52651;BME280;38537;47.226;39.702;2023-01-15T13:43:36;101194.00;;;3.62;71.62
52651;BME280;38537;47.226;39.702;2023-01-15T13:46:09;101200.59;;;3.61;71.98
52651;BME280;38537;47.226;39.702;2023-01-15T13:48:47;101187.03;;;3.48;72.64
52651;BME280;38537;47.226;39.702;2023-01-15T13:53:53;101191.97;;;3.46;72.69
52651;BME280;38537;47.226;39.702;2023-01-15T13:56:33;101193.28;;;3.55;72.88
52651;BME280;38537;47.226;39.702;2023-01-15T13:59:26;101197.22;;;3.47;72.66
52651;BME280;38537;47.226;39.702;2023-01-15T14:01:51;101183.69;;;3.46;72.44
52651;BME280;38537;47.226;39.702;2023-01-15T14:04:32;101185.72;;;3.50;72.70
52651;BME280;38537;47.226;39.702;2023-01-15T14:07:03;101172.53;;;3.29;73.12
52651;BME280;38537;47.226;39.702;2023-01-15T14:09:44;101170.00;;;3.27;73.09
52651;BME280;38537;47.226;39.702;2023-01-15T14:31:40;101186.16;;;3.82;72.24
52651;BME280;38537;47.226;39.702;2023-01-15T14:34:22;101179.91;;;3.87;72.49
52651;BME280;38537;47.226;39.702;2023-01-15T14:37:20;101157.69;;;3.70;72.72
52651;BME280;38537;47.226;39.702;2023-01-15T14:39:58;101153.06;;;3.59;72.77
52651;BME280;38537;47.226;39.702;2023-01-15T14:42:30;101176.09;;;3.64;72.46
52651;BME280;38537;47.226;39.702;2023-01-15T14:47:59;101179.22;;;3.68;73.15
52651;BME280;38537;47.226;39.702;2023-01-15T14:50:35;101173.94;;;3.66;72.87
52651;BME280;38537;47.226;39.702;2023-01-15T14:56:03;101185.06;;;3.83;72.46
52651;BME280;38537;47.226;39.702;2023-01-15T14:58:48;101187.44;;;3.91;72.82
52651;BME280;38537;47.226;39.702;2023-01-15T15:01:34;101184.66;;;3.91;72.58
52651;BME280;38537;47.226;39.702;2023-01-15T15:04:20;101194.16;;;3.95;72.92
52651;BME280;38537;47.226;39.702;2023-01-15T15:06:53;101180.94;;;3.97;72.78
52651;BME280;38537;47.226;39.702;2023-01-15T15:10:03;101181.50;;;4.11;72.79